DNMM

Murtala Muhammed International Airport

Airport
ICAO code
DNMM
IATA Code
LOS
Summary
ICAO Region
AFI
ICAO Territory
Location

Ikeja, Lagos State

Serving
Lagos
Elevation
135 ft
Coordinates
6° 34' 40" N , 3° 19' 18" E
KCC
Metar
Observation
DNMM 302000Z 20010KT 9999 FEW013 29/25 Q1010 NOSIG
Station
Lagos / Ikeja
Date/Time
2023-01-30 20:00:00
Wind direction
200°
Wind speed
10 kts
Lowest cloud amount
few clouds
Temperature
29°C
Dew point
25°C
Humidity
79%
QNH
1010 hPa
Weather condition
n/a

International airport serving Lagos, Nigeria.

Climatology

Tropical Savanna climate (Köppen climate classification Aw)

Runways

Designator Length Width Surface Rops
18L/36R 2742 45 ASP Yes/Yes
18R/36L 3900 60 ASP Yes/Yes

SKYbrary Partners:

Safety knowledge contributed by: